TimeMDT,TemperatureF,Dew PointF,Humidity,Sea Level PressureIn,VisibilityMPH,Wind Direction,Wind SpeedMPH,Gust SpeedMPH,PrecipitationIn,Events,Conditions,WindDirDegrees,DateUTC
12:53 AM,45.0,37.0,74,30.05,10.0,West,9.2,-,N/A,,Overcast,270,2013-10-22 06:53:00
1:53 AM,45.0,37.0,74,30.06,10.0,West,8.1,-,N/A,,Overcast,270,2013-10-22 07:53:00
2:53 AM,46.0,37.0,71,30.06,10.0,West,10.4,-,N/A,,Overcast,280,2013-10-22 08:53:00
3:53 AM,43.0,36.0,76,30.06,10.0,West,11.5,-,N/A,,Mostly Cloudy,270,2013-10-22 09:53:00
4:53 AM,45.0,36.0,71,30.07,10.0,West,9.2,-,N/A,,Overcast,270,2013-10-22 10:53:00
5:53 AM,43.0,37.0,80,30.09,10.0,West,11.5,-,N/A,,Overcast,280,2013-10-22 11:53:00
6:53 AM,45.0,37.0,74,30.09,10.0,West,9.2,-,N/A,,Overcast,270,2013-10-22 12:53:00
7:53 AM,44.1,36.0,73,30.10,10.0,West,10.4,-,N/A,,Overcast,280,2013-10-22 13:53:00
8:53 AM,46.0,36.0,68,30.12,10.0,West,9.2,-,N/A,,Partly Cloudy,280,2013-10-22 14:53:00
9:53 AM,51.1,37.0,59,30.12,10.0,NW,11.5,-,N/A,,Partly Cloudy,310,2013-10-22 15:53:00
10:53 AM,52.0,37.9,59,30.12,10.0,North,11.5,-,N/A,,Overcast,350,2013-10-22 16:53:00
11:53 AM,54.0,37.9,55,30.10,10.0,North,9.2,-,N/A,,Clear,350,2013-10-22 17:53:00
12:53 PM,55.9,37.9,51,30.08,10.0,NNW,5.8,-,N/A,,Unknown,330,2013-10-22 18:53:00
1:53 PM,57.0,37.9,49,30.07,10.0,WNW,8.1,-,N/A,,Clear,300,2013-10-22 19:53:00
2:53 PM,57.0,37.9,49,30.05,10.0,NW,9.2,-,N/A,,Clear,320,2013-10-22 20:53:00
3:53 PM,57.9,37.9,47,30.06,10.0,NNW,11.5,-,N/A,,Clear,340,2013-10-22 21:53:00
4:53 PM,57.0,37.9,49,30.05,10.0,NNW,5.8,-,N/A,,Clear,340,2013-10-22 22:53:00
5:53 PM,45.0,37.9,76,30.09,10.0,West,4.6,-,N/A,,Clear,280,2013-10-22 23:53:00
6:53 PM,44.1,37.0,76,30.06,10.0,Calm,Calm,-,N/A,,Clear,0,2013-10-23 00:53:00
7:53 PM,43.0,37.0,80,30.08,10.0,WSW,6.9,-,N/A,,Clear,250,2013-10-23 01:53:00
8:53 PM,43.0,37.0,80,30.07,10.0,West,9.2,-,N/A,,Clear,260,2013-10-23 02:53:00
9:53 PM,43.0,37.0,80,30.07,10.0,West,9.2,-,N/A,,Clear,260,2013-10-23 03:53:00
10:53 PM,45.0,37.9,76,30.07,10.0,West,8.1,-,N/A,,Clear,270,2013-10-23 04:53:00
11:53 PM,46.0,37.0,71,30.06,10.0,WSW,12.7,-,N/A,,Overcast,250,2013-10-23 05:53:00